sensor_id;sensor_type;location;lat;lon;timestamp;P1;durP1;ratioP1;P2;durP2;ratioP2
3423;SDS011;72707;50.120;8.500;2024-03-22T00:00:13;320.47;;;114.93;;
3423;SDS011;72707;50.120;8.500;2024-03-22T00:02:39;331.20;;;126.17;;
3423;SDS011;72707;50.120;8.500;2024-03-22T00:05:05;327.00;;;123.37;;
3423;SDS011;72707;50.120;8.500;2024-03-22T00:07:31;320.83;;;116.60;;
3423;SDS011;72707;50.120;8.500;2024-03-22T00:09:57;322.87;;;117.33;;
3423;SDS011;72707;50.120;8.500;2024-03-22T00:12:22;322.27;;;114.97;;
3423;SDS011;72707;50.120;8.500;2024-03-22T00:14:49;330.03;;;119.57;;
3423;SDS011;72707;50.120;8.500;2024-03-22T00:17:16;323.13;;;116.53;;
3423;SDS011;72707;50.120;8.500;2024-03-22T00:19:42;322.87;;;117.83;;
3423;SDS011;72707;50.120;8.500;2024-03-22T00:22:07;317.43;;;114.27;;
3423;SDS011;72707;50.120;8.500;2024-03-22T00:24:33;325.63;;;117.63;;
3423;SDS011;72707;50.120;8.500;2024-03-22T00:26:59;320.83;;;113.13;;
3423;SDS011;72707;50.120;8.500;2024-03-22T00:29:25;325.63;;;115.63;;
3423;SDS011;72707;50.120;8.500;2024-03-22T00:31:51;319.87;;;111.27;;
3423;SDS011;72707;50.120;8.500;2024-03-22T00:34:17;308.97;;;106.10;;
3423;SDS011;72707;50.120;8.500;2024-03-22T00:36:44;318.73;;;108.63;;
3423;SDS011;72707;50.120;8.500;2024-03-22T00:39:10;320.40;;;108.87;;
3423;SDS011;72707;50.120;8.500;2024-03-22T00:41:36;320.03;;;110.17;;
3423;SDS011;72707;50.120;8.500;2024-03-22T00:44:02;314.60;;;106.90;;
3423;SDS011;72707;50.120;8.500;2024-03-22T00:46:27;310.80;;;107.33;;
3423;SDS011;72707;50.120;8.500;2024-03-22T00:48:53;322.77;;;107.63;;
3423;SDS011;72707;50.120;8.500;2024-03-22T00:51:19;310.67;;;108.77;;
3423;SDS011;72707;50.120;8.500;2024-03-22T00:53:44;322.00;;;111.00;;
3423;SDS011;72707;50.120;8.500;2024-03-22T00:56:10;304.40;;;104.50;;
3423;SDS011;72707;50.120;8.500;2024-03-22T00:58:36;322.10;;;114.43;;
3423;SDS011;72707;50.120;8.500;2024-03-22T01:01:02;313.87;;;108.03;;
3423;SDS011;72707;50.120;8.500;2024-03-22T01:03:27;311.73;;;107.17;;
3423;SDS011;72707;50.120;8.500;2024-03-22T01:05:53;315.70;;;108.63;;
3423;SDS011;72707;50.120;8.500;2024-03-22T01:08:19;316.23;;;107.83;;
3423;SDS011;72707;50.120;8.500;2024-03-22T01:10:45;303.20;;;101.67;;
3423;SDS011;72707;50.120;8.500;2024-03-22T01:13:10;314.23;;;106.20;;
3423;SDS011;72707;50.120;8.500;2024-03-22T01:15:36;301.43;;;102.07;;
3423;SDS011;72707;50.120;8.500;2024-03-22T01:18:02;309.30;;;106.47;;
3423;SDS011;72707;50.120;8.500;2024-03-22T01:20:28;298.23;;;100.77;;
3423;SDS011;72707;50.120;8.500;2024-03-22T01:22:54;306.60;;;106.40;;
3423;SDS011;72707;50.120;8.500;2024-03-22T01:25:19;306.93;;;106.60;;
3423;SDS011;72707;50.120;8.500;2024-03-22T01:27:45;305.00;;;105.77;;
3423;SDS011;72707;50.120;8.500;2024-03-22T01:30:11;311.90;;;105.23;;
3423;SDS011;72707;50.120;8.500;2024-03-22T01:32:37;310.53;;;107.07;;
3423;SDS011;72707;50.120;8.500;2024-03-22T01:35:03;310.00;;;108.73;;
3423;SDS011;72707;50.120;8.500;2024-03-22T01:37:29;303.00;;;103.47;;
3423;SDS011;72707;50.120;8.500;2024-03-22T01:39:54;299.60;;;99.97;;
3423;SDS011;72707;50.120;8.500;2024-03-22T01:42:20;299.33;;;97.30;;
3423;SDS011;72707;50.120;8.500;2024-03-22T01:44:46;287.40;;;94.57;;
3423;SDS011;72707;50.120;8.500;2024-03-22T01:47:14;301.67;;;101.70;;
3423;SDS011;72707;50.120;8.500;2024-03-22T01:49:39;300.63;;;102.03;;
3423;SDS011;72707;50.120;8.500;2024-03-22T01:52:05;301.93;;;103.00;;
3423;SDS011;72707;50.120;8.500;2024-03-22T01:54:31;302.50;;;103.60;;
3423;SDS011;72707;50.120;8.500;2024-03-22T01:56:57;300.93;;;102.90;;
3423;SDS011;72707;50.120;8.500;2024-03-22T01:59:23;302.10;;;102.67;;
3423;SDS011;72707;50.120;8.500;2024-03-22T02:01:49;305.80;;;104.43;;
3423;SDS011;72707;50.120;8.500;2024-03-22T02:04:15;286.20;;;93.43;;
3423;SDS011;72707;50.120;8.500;2024-03-22T02:06:41;289.47;;;93.50;;
3423;SDS011;72707;50.120;8.500;2024-03-22T02:09:07;293.83;;;93.77;;
3423;SDS011;72707;50.120;8.500;2024-03-22T02:11:34;285.30;;;92.37;;
3423;SDS011;72707;50.120;8.500;2024-03-22T02:14:02;288.43;;;94.30;;
3423;SDS011;72707;50.120;8.500;2024-03-22T02:16:29;289.37;;;93.00;;
3423;SDS011;72707;50.120;8.500;2024-03-22T02:18:54;291.73;;;92.30;;
3423;SDS011;72707;50.120;8.500;2024-03-22T02:21:20;290.90;;;93.17;;
3423;SDS011;72707;50.120;8.500;2024-03-22T02:23:46;287.30;;;91.60;;
3423;SDS011;72707;50.120;8.500;2024-03-22T02:26:12;288.10;;;91.23;;
3423;SDS011;72707;50.120;8.500;2024-03-22T02:28:38;295.10;;;95.50;;
3423;SDS011;72707;50.120;8.500;2024-03-22T02:31:04;283.23;;;90.10;;
3423;SDS011;72707;50.120;8.500;2024-03-22T02:33:30;279.13;;;86.50;;
3423;SDS011;72707;50.120;8.500;2024-03-22T02:35:56;290.90;;;90.57;;
3423;SDS011;72707;50.120;8.500;2024-03-22T02:38:22;289.00;;;89.90;;
3423;SDS011;72707;50.120;8.500;2024-03-22T02:40:49;284.10;;;88.50;;
3423;SDS011;72707;50.120;8.500;2024-03-22T02:43:15;284.87;;;88.67;;
3423;SDS011;72707;50.120;8.500;2024-03-22T02:45:46;297.00;;;91.10;;
3423;SDS011;72707;50.120;8.500;2024-03-22T02:48:12;283.13;;;88.53;;
3423;SDS011;72707;50.120;8.500;2024-03-22T02:50:38;281.90;;;87.03;;
3423;SDS011;72707;50.120;8.500;2024-03-22T02:53:04;276.87;;;86.73;;
3423;SDS011;72707;50.120;8.500;2024-03-22T02:55:35;275.17;;;85.37;;
3423;SDS011;72707;50.120;8.500;2024-03-22T02:58:04;276.13;;;86.77;;
3423;SDS011;72707;50.120;8.500;2024-03-22T03:00:31;271.27;;;85.73;;
3423;SDS011;72707;50.120;8.500;2024-03-22T03:02:57;269.30;;;83.57;;
3423;SDS011;72707;50.120;8.500;2024-03-22T03:05:23;277.40;;;89.03;;
3423;SDS011;72707;50.120;8.500;2024-03-22T03:07:49;273.97;;;87.90;;
3423;SDS011;72707;50.120;8.500;2024-03-22T03:10:15;270.43;;;84.77;;
3423;SDS011;72707;50.120;8.500;2024-03-22T03:12:41;270.43;;;85.40;;
3423;SDS011;72707;50.120;8.500;2024-03-22T03:15:07;273.03;;;85.97;;
3423;SDS011;72707;50.120;8.500;2024-03-22T03:17:33;270.13;;;83.80;;
3423;SDS011;72707;50.120;8.500;2024-03-22T03:19:59;277.73;;;87.43;;
3423;SDS011;72707;50.120;8.500;2024-03-22T03:22:25;268.93;;;82.60;;
3423;SDS011;72707;50.120;8.500;2024-03-22T03:24:51;265.33;;;84.50;;
3423;SDS011;72707;50.120;8.500;2024-03-22T03:27:17;265.20;;;82.07;;
3423;SDS011;72707;50.120;8.500;2024-03-22T03:29:43;271.73;;;81.37;;
3423;SDS011;72707;50.120;8.500;2024-03-22T03:32:09;265.07;;;79.83;;
3423;SDS011;72707;50.120;8.500;2024-03-22T03:34:35;264.93;;;81.57;;
3423;SDS011;72707;50.120;8.500;2024-03-22T03:37:00;272.33;;;83.30;;
3423;SDS011;72707;50.120;8.500;2024-03-22T03:39:27;274.40;;;82.63;;
3423;SDS011;72707;50.120;8.500;2024-03-22T03:41:54;269.33;;;83.80;;
3423;SDS011;72707;50.120;8.500;2024-03-22T03:44:20;272.07;;;81.23;;
3423;SDS011;72707;50.120;8.500;2024-03-22T03:46:46;263.57;;;80.90;;
3423;SDS011;72707;50.120;8.500;2024-03-22T03:49:12;274.73;;;81.80;;
3423;SDS011;72707;50.120;8.500;2024-03-22T03:51:38;264.93;;;82.27;;
3423;SDS011;72707;50.120;8.500;2024-03-22T03:54:04;273.63;;;83.43;;
3423;SDS011;72707;50.120;8.500;2024-03-22T03:56:30;262.53;;;81.67;;
3423;SDS011;72707;50.120;8.500;2024-03-22T03:58:55;268.80;;;83.00;;
3423;SDS011;72707;50.120;8.500;2024-03-22T04:01:21;272.03;;;85.30;;
3423;SDS011;72707;50.120;8.500;2024-03-22T04:03:48;270.07;;;83.10;;
3423;SDS011;72707;50.120;8.500;2024-03-22T04:06:14;272.87;;;84.77;;
3423;SDS011;72707;50.120;8.500;2024-03-22T04:08:40;271.07;;;83.70;;
3423;SDS011;72707;50.120;8.500;2024-03-22T04:11:06;273.20;;;84.20;;
3423;SDS011;72707;50.120;8.500;2024-03-22T04:13:32;278.17;;;86.97;;
3423;SDS011;72707;50.120;8.500;2024-03-22T04:15:58;280.73;;;89.37;;
3423;SDS011;72707;50.120;8.500;2024-03-22T04:18:24;276.50;;;87.90;;
3423;SDS011;72707;50.120;8.500;2024-03-22T04:20:57;282.07;;;89.73;;
3423;SDS011;72707;50.120;8.500;2024-03-22T04:23:24;270.77;;;86.37;;
3423;SDS011;72707;50.120;8.500;2024-03-22T04:25:54;279.93;;;89.27;;
3423;SDS011;72707;50.120;8.500;2024-03-22T04:28:20;276.37;;;88.50;;
3423;SDS011;72707;50.120;8.500;2024-03-22T04:31:00;276.73;;;88.13;;
3423;SDS011;72707;50.120;8.500;2024-03-22T04:33:31;276.47;;;86.37;;
3423;SDS011;72707;50.120;8.500;2024-03-22T04:35:58;272.70;;;87.77;;
3423;SDS011;72707;50.120;8.500;2024-03-22T04:38:25;280.97;;;91.67;;
3423;SDS011;72707;50.120;8.500;2024-03-22T04:40:51;280.83;;;91.60;;
3423;SDS011;72707;50.120;8.500;2024-03-22T04:43:17;278.17;;;88.77;;
3423;SDS011;72707;50.120;8.500;2024-03-22T04:45:44;285.67;;;93.90;;
3423;SDS011;72707;50.120;8.500;2024-03-22T04:48:12;288.43;;;92.50;;
3423;SDS011;72707;50.120;8.500;2024-03-22T04:50:39;287.77;;;94.37;;
3423;SDS011;72707;50.120;8.500;2024-03-22T04:53:04;280.80;;;90.93;;
3423;SDS011;72707;50.120;8.500;2024-03-22T04:55:31;289.03;;;92.90;;
3423;SDS011;72707;50.120;8.500;2024-03-22T04:57:58;303.23;;;93.60;;
3423;SDS011;72707;50.120;8.500;2024-03-22T05:00:24;272.97;;;87.97;;
3423;SDS011;72707;50.120;8.500;2024-03-22T05:02:50;277.40;;;86.13;;
3423;SDS011;72707;50.120;8.500;2024-03-22T05:05:17;290.63;;;93.23;;
3423;SDS011;72707;50.120;8.500;2024-03-22T05:07:43;281.97;;;92.23;;
3423;SDS011;72707;50.120;8.500;2024-03-22T05:10:09;281.90;;;91.57;;
3423;SDS011;72707;50.120;8.500;2024-03-22T05:12:35;278.13;;;89.43;;
3423;SDS011;72707;50.120;8.500;2024-03-22T05:15:05;280.70;;;88.63;;
3423;SDS011;72707;50.120;8.500;2024-03-22T05:17:31;274.03;;;87.60;;
3423;SDS011;72707;50.120;8.500;2024-03-22T05:19:57;277.63;;;89.17;;
3423;SDS011;72707;50.120;8.500;2024-03-22T05:22:23;274.47;;;86.00;;
3423;SDS011;72707;50.120;8.500;2024-03-22T05:24:49;274.73;;;87.83;;
3423;SDS011;72707;50.120;8.500;2024-03-22T05:27:15;279.57;;;90.20;;
3423;SDS011;72707;50.120;8.500;2024-03-22T05:29:41;285.03;;;91.57;;
3423;SDS011;72707;50.120;8.500;2024-03-22T05:32:07;283.17;;;90.27;;
3423;SDS011;72707;50.120;8.500;2024-03-22T05:34:33;278.73;;;90.47;;
3423;SDS011;72707;50.120;8.500;2024-03-22T05:37:00;290.27;;;94.83;;
3423;SDS011;72707;50.120;8.500;2024-03-22T05:39:26;275.77;;;88.63;;
3423;SDS011;72707;50.120;8.500;2024-03-22T05:41:52;295.17;;;94.43;;
3423;SDS011;72707;50.120;8.500;2024-03-22T05:44:19;281.03;;;90.17;;
3423;SDS011;72707;50.120;8.500;2024-03-22T05:46:45;288.00;;;93.27;;
3423;SDS011;72707;50.120;8.500;2024-03-22T05:49:10;293.23;;;95.93;;
3423;SDS011;72707;50.120;8.500;2024-03-22T05:51:35;296.93;;;96.13;;
3423;SDS011;72707;50.120;8.500;2024-03-22T05:54:01;296.90;;;98.73;;
3423;SDS011;72707;50.120;8.500;2024-03-22T05:56:27;300.00;;;98.13;;
3423;SDS011;72707;50.120;8.500;2024-03-22T05:58:53;300.67;;;99.07;;
3423;SDS011;72707;50.120;8.500;2024-03-22T06:01:19;304.53;;;103.43;;
3423;SDS011;72707;50.120;8.500;2024-03-22T06:03:45;302.27;;;101.53;;
3423;SDS011;72707;50.120;8.500;2024-03-22T06:06:11;299.00;;;99.97;;
3423;SDS011;72707;50.120;8.500;2024-03-22T06:08:37;303.87;;;101.40;;
3423;SDS011;72707;50.120;8.500;2024-03-22T06:11:05;299.73;;;99.27;;
3423;SDS011;72707;50.120;8.500;2024-03-22T06:13:32;302.27;;;97.53;;
3423;SDS011;72707;50.120;8.500;2024-03-22T06:15:58;294.13;;;97.77;;
3423;SDS011;72707;50.120;8.500;2024-03-22T06:18:24;300.67;;;101.17;;
3423;SDS011;72707;50.120;8.500;2024-03-22T06:20:50;296.63;;;95.13;;
3423;SDS011;72707;50.120;8.500;2024-03-22T06:23:19;295.70;;;95.40;;
3423;SDS011;72707;50.120;8.500;2024-03-22T06:25:51;294.90;;;96.17;;
3423;SDS011;72707;50.120;8.500;2024-03-22T06:28:18;302.20;;;98.77;;
3423;SDS011;72707;50.120;8.500;2024-03-22T06:30:43;302.47;;;99.83;;
3423;SDS011;72707;50.120;8.500;2024-03-22T06:33:09;310.67;;;100.93;;
3423;SDS011;72707;50.120;8.500;2024-03-22T06:35:35;316.57;;;106.70;;
3423;SDS011;72707;50.120;8.500;2024-03-22T06:38:01;319.50;;;106.93;;
3423;SDS011;72707;50.120;8.500;2024-03-22T06:40:27;316.23;;;100.93;;
3423;SDS011;72707;50.120;8.500;2024-03-22T06:42:53;313.60;;;102.80;;
3423;SDS011;72707;50.120;8.500;2024-03-22T06:45:19;314.27;;;103.53;;
3423;SDS011;72707;50.120;8.500;2024-03-22T06:47:45;311.27;;;103.07;;
3423;SDS011;72707;50.120;8.500;2024-03-22T06:50:11;320.33;;;106.97;;
3423;SDS011;72707;50.120;8.500;2024-03-22T06:52:37;303.60;;;98.47;;
3423;SDS011;72707;50.120;8.500;2024-03-22T06:55:03;319.00;;;107.00;;
3423;SDS011;72707;50.120;8.500;2024-03-22T06:57:29;320.93;;;107.33;;
3423;SDS011;72707;50.120;8.500;2024-03-22T06:59:55;309.00;;;101.80;;
3423;SDS011;72707;50.120;8.500;2024-03-22T07:02:21;313.57;;;107.43;;
3423;SDS011;72707;50.120;8.500;2024-03-22T07:04:47;314.37;;;107.37;;
3423;SDS011;72707;50.120;8.500;2024-03-22T07:07:13;312.23;;;105.87;;
3423;SDS011;72707;50.120;8.500;2024-03-22T07:09:39;312.47;;;108.60;;
3423;SDS011;72707;50.120;8.500;2024-03-22T07:12:05;319.87;;;109.13;;
3423;SDS011;72707;50.120;8.500;2024-03-22T07:14:31;314.70;;;109.30;;
3423;SDS011;72707;50.120;8.500;2024-03-22T07:16:56;323.30;;;115.73;;
3423;SDS011;72707;50.120;8.500;2024-03-22T07:19:22;314.30;;;110.60;;
3423;SDS011;72707;50.120;8.500;2024-03-22T07:21:48;320.83;;;111.60;;
3423;SDS011;72707;50.120;8.500;2024-03-22T07:24:14;315.93;;;114.67;;
3423;SDS011;72707;50.120;8.500;2024-03-22T07:26:40;318.03;;;113.40;;
3423;SDS011;72707;50.120;8.500;2024-03-22T07:29:06;331.07;;;120.13;;
3423;SDS011;72707;50.120;8.500;2024-03-22T07:31:32;330.60;;;123.53;;
3423;SDS011;72707;50.120;8.500;2024-03-22T07:33:58;329.33;;;117.47;;
3423;SDS011;72707;50.120;8.500;2024-03-22T07:36:24;321.73;;;119.77;;
3423;SDS011;72707;50.120;8.500;2024-03-22T07:38:51;315.33;;;116.53;;
3423;SDS011;72707;50.120;8.500;2024-03-22T07:41:17;318.53;;;116.47;;
3423;SDS011;72707;50.120;8.500;2024-03-22T07:43:43;318.37;;;113.77;;
3423;SDS011;72707;50.120;8.500;2024-03-22T07:46:09;321.47;;;119.47;;
3423;SDS011;72707;50.120;8.500;2024-03-22T07:48:35;340.07;;;131.17;;
3423;SDS011;72707;50.120;8.500;2024-03-22T07:51:01;326.90;;;123.30;;
3423;SDS011;72707;50.120;8.500;2024-03-22T07:53:27;327.40;;;123.13;;
3423;SDS011;72707;50.120;8.500;2024-03-22T07:55:53;323.90;;;125.83;;
3423;SDS011;72707;50.120;8.500;2024-03-22T07:58:19;324.50;;;125.43;;
3423;SDS011;72707;50.120;8.500;2024-03-22T08:00:45;328.80;;;130.03;;
3423;SDS011;72707;50.120;8.500;2024-03-22T08:03:14;327.57;;;130.60;;
3423;SDS011;72707;50.120;8.500;2024-03-22T08:05:40;340.57;;;141.30;;
3423;SDS011;72707;50.120;8.500;2024-03-22T08:08:06;334.93;;;136.83;;
3423;SDS011;72707;50.120;8.500;2024-03-22T08:10:32;324.13;;;134.17;;
3423;SDS011;72707;50.120;8.500;2024-03-22T08:12:59;324.10;;;134.90;;
3423;SDS011;72707;50.120;8.500;2024-03-22T08:15:28;321.63;;;132.07;;
3423;SDS011;72707;50.120;8.500;2024-03-22T08:17:55;330.53;;;143.27;;
3423;SDS011;72707;50.120;8.500;2024-03-22T08:20:22;319.60;;;139.43;;
3423;SDS011;72707;50.120;8.500;2024-03-22T08:22:48;319.53;;;136.63;;
3423;SDS011;72707;50.120;8.500;2024-03-22T08:25:14;323.70;;;138.40;;
3423;SDS011;72707;50.120;8.500;2024-03-22T08:27:45;322.60;;;139.00;;
3423;SDS011;72707;50.120;8.500;2024-03-22T08:30:11;336.43;;;146.77;;
3423;SDS011;72707;50.120;8.500;2024-03-22T08:32:37;343.73;;;152.37;;
3423;SDS011;72707;50.120;8.500;2024-03-22T08:35:03;323.17;;;141.63;;
3423;SDS011;72707;50.120;8.500;2024-03-22T08:37:33;329.63;;;149.83;;
3423;SDS011;72707;50.120;8.500;2024-03-22T08:39:58;330.57;;;154.00;;
3423;SDS011;72707;50.120;8.500;2024-03-22T08:42:24;326.37;;;148.20;;
3423;SDS011;72707;50.120;8.500;2024-03-22T08:44:50;322.50;;;143.73;;
3423;SDS011;72707;50.120;8.500;2024-03-22T08:47:16;326.57;;;152.13;;
3423;SDS011;72707;50.120;8.500;2024-03-22T08:49:41;327.53;;;149.90;;
3423;SDS011;72707;50.120;8.500;2024-03-22T08:52:09;323.73;;;151.33;;
3423;SDS011;72707;50.120;8.500;2024-03-22T08:54:35;327.40;;;146.37;;
3423;SDS011;72707;50.120;8.500;2024-03-22T08:57:01;326.03;;;150.23;;
3423;SDS011;72707;50.120;8.500;2024-03-22T08:59:27;320.70;;;157.83;;
3423;SDS011;72707;50.120;8.500;2024-03-22T09:01:53;334.60;;;161.33;;
3423;SDS011;72707;50.120;8.500;2024-03-22T09:04:18;337.50;;;170.53;;
3423;SDS011;72707;50.120;8.500;2024-03-22T09:06:45;359.30;;;174.50;;
3423;SDS011;72707;50.120;8.500;2024-03-22T09:09:11;337.27;;;156.30;;
3423;SDS011;72707;50.120;8.500;2024-03-22T09:11:37;332.33;;;161.20;;
3423;SDS011;72707;50.120;8.500;2024-03-22T09:14:03;327.10;;;160.30;;
3423;SDS011;72707;50.120;8.500;2024-03-22T09:16:29;330.77;;;165.23;;
3423;SDS011;72707;50.120;8.500;2024-03-22T09:18:55;332.73;;;162.07;;
3423;SDS011;72707;50.120;8.500;2024-03-22T09:21:21;327.37;;;153.30;;
3423;SDS011;72707;50.120;8.500;2024-03-22T09:23:49;326.77;;;157.43;;
3423;SDS011;72707;50.120;8.500;2024-03-22T09:26:15;331.73;;;166.17;;
3423;SDS011;72707;50.120;8.500;2024-03-22T09:28:41;328.07;;;159.90;;
3423;SDS011;72707;50.120;8.500;2024-03-22T09:31:07;326.90;;;159.07;;
3423;SDS011;72707;50.120;8.500;2024-03-22T09:33:33;334.23;;;168.80;;
3423;SDS011;72707;50.120;8.500;2024-03-22T09:35:59;324.63;;;168.13;;
3423;SDS011;72707;50.120;8.500;2024-03-22T09:38:25;336.83;;;175.23;;
3423;SDS011;72707;50.120;8.500;2024-03-22T09:40:51;332.77;;;164.33;;
3423;SDS011;72707;50.120;8.500;2024-03-22T09:43:20;332.30;;;169.03;;
3423;SDS011;72707;50.120;8.500;2024-03-22T09:45:49;321.83;;;161.27;;
3423;SDS011;72707;50.120;8.500;2024-03-22T09:48:19;327.73;;;160.03;;
3423;SDS011;72707;50.120;8.500;2024-03-22T09:50:47;361.00;;;166.27;;
3423;SDS011;72707;50.120;8.500;2024-03-22T09:53:15;358.43;;;159.17;;
3423;SDS011;72707;50.120;8.500;2024-03-22T09:55:44;346.17;;;169.47;;
3423;SDS011;72707;50.120;8.500;2024-03-22T09:58:11;335.43;;;166.30;;
3423;SDS011;72707;50.120;8.500;2024-03-22T10:00:38;341.57;;;179.20;;
3423;SDS011;72707;50.120;8.500;2024-03-22T10:03:05;338.47;;;181.73;;
3423;SDS011;72707;50.120;8.500;2024-03-22T10:05:31;343.53;;;181.50;;
3423;SDS011;72707;50.120;8.500;2024-03-22T10:07:57;323.33;;;175.57;;
3423;SDS011;72707;50.120;8.500;2024-03-22T10:10:23;341.50;;;191.47;;
3423;SDS011;72707;50.120;8.500;2024-03-22T10:12:49;339.67;;;198.60;;
3423;SDS011;72707;50.120;8.500;2024-03-22T10:15:14;338.50;;;205.30;;
3423;SDS011;72707;50.120;8.500;2024-03-22T10:17:41;345.40;;;207.37;;
3423;SDS011;72707;50.120;8.500;2024-03-22T10:20:07;333.27;;;201.27;;
3423;SDS011;72707;50.120;8.500;2024-03-22T10:22:48;334.03;;;190.07;;
3423;SDS011;72707;50.120;8.500;2024-03-22T10:25:14;359.63;;;213.43;;
3423;SDS011;72707;50.120;8.500;2024-03-22T10:27:40;348.30;;;202.00;;
3423;SDS011;72707;50.120;8.500;2024-03-22T10:30:09;338.20;;;190.87;;
3423;SDS011;72707;50.120;8.500;2024-03-22T10:32:36;346.20;;;200.23;;
3423;SDS011;72707;50.120;8.500;2024-03-22T10:35:05;341.67;;;192.23;;
3423;SDS011;72707;50.120;8.500;2024-03-22T10:37:32;339.87;;;186.70;;
3423;SDS011;72707;50.120;8.500;2024-03-22T10:39:59;343.73;;;192.67;;
3423;SDS011;72707;50.120;8.500;2024-03-22T10:42:32;337.47;;;202.67;;
3423;SDS011;72707;50.120;8.500;2024-03-22T10:44:58;335.73;;;211.83;;
3423;SDS011;72707;50.120;8.500;2024-03-22T10:47:24;340.67;;;208.27;;
3423;SDS011;72707;50.120;8.500;2024-03-22T10:49:56;345.67;;;213.63;;
3423;SDS011;72707;50.120;8.500;2024-03-22T10:55:20;346.07;;;206.90;;
3423;SDS011;72707;50.120;8.500;2024-03-22T10:57:55;341.87;;;212.30;;
3423;SDS011;72707;50.120;8.500;2024-03-22T11:00:28;341.13;;;197.90;;
3423;SDS011;72707;50.120;8.500;2024-03-22T11:02:55;343.80;;;213.20;;
3423;SDS011;72707;50.120;8.500;2024-03-22T11:05:21;347.10;;;207.30;;
3423;SDS011;72707;50.120;8.500;2024-03-22T11:07:47;342.53;;;207.90;;
3423;SDS011;72707;50.120;8.500;2024-03-22T11:10:13;345.47;;;206.30;;
3423;SDS011;72707;50.120;8.500;2024-03-22T11:12:39;336.83;;;189.23;;
3423;SDS011;72707;50.120;8.500;2024-03-22T11:15:06;349.40;;;206.43;;
3423;SDS011;72707;50.120;8.500;2024-03-22T11:17:32;337.93;;;196.13;;
3423;SDS011;72707;50.120;8.500;2024-03-22T11:19:58;365.10;;;223.27;;
3423;SDS011;72707;50.120;8.500;2024-03-22T11:22:25;344.47;;;220.73;;
3423;SDS011;72707;50.120;8.500;2024-03-22T11:24:52;359.43;;;225.47;;
3423;SDS011;72707;50.120;8.500;2024-03-22T11:27:19;337.27;;;219.67;;
3423;SDS011;72707;50.120;8.500;2024-03-22T11:29:45;341.27;;;236.83;;
3423;SDS011;72707;50.120;8.500;2024-03-22T11:32:11;346.70;;;243.37;;
3423;SDS011;72707;50.120;8.500;2024-03-22T11:34:38;346.13;;;234.03;;
3423;SDS011;72707;50.120;8.500;2024-03-22T11:37:06;349.93;;;243.77;;
3423;SDS011;72707;50.120;8.500;2024-03-22T11:39:37;345.10;;;239.40;;
3423;SDS011;72707;50.120;8.500;2024-03-22T11:42:04;344.13;;;239.87;;
3423;SDS011;72707;50.120;8.500;2024-03-22T11:44:31;346.13;;;236.77;;
3423;SDS011;72707;50.120;8.500;2024-03-22T11:47:01;348.33;;;241.27;;
3423;SDS011;72707;50.120;8.500;2024-03-22T11:49:28;349.17;;;242.07;;
3423;SDS011;72707;50.120;8.500;2024-03-22T11:51:55;349.80;;;253.17;;
3423;SDS011;72707;50.120;8.500;2024-03-22T11:54:21;350.73;;;266.30;;
3423;SDS011;72707;50.120;8.500;2024-03-22T11:56:48;368.60;;;276.73;;
3423;SDS011;72707;50.120;8.500;2024-03-22T11:59:14;359.70;;;306.47;;
3423;SDS011;72707;50.120;8.500;2024-03-22T12:01:40;373.73;;;329.90;;
3423;SDS011;72707;50.120;8.500;2024-03-22T12:04:06;373.83;;;333.07;;
3423;SDS011;72707;50.120;8.500;2024-03-22T12:06:35;373.80;;;327.50;;
3423;SDS011;72707;50.120;8.500;2024-03-22T12:09:02;410.80;;;367.83;;
3423;SDS011;72707;50.120;8.500;2024-03-22T12:11:28;389.00;;;347.80;;
3423;SDS011;72707;50.120;8.500;2024-03-22T12:13:54;414.90;;;372.33;;
3423;SDS011;72707;50.120;8.500;2024-03-22T12:16:20;391.07;;;349.63;;
3423;SDS011;72707;50.120;8.500;2024-03-22T12:18:46;382.93;;;341.67;;
3423;SDS011;72707;50.120;8.500;2024-03-22T12:21:11;384.00;;;342.80;;
3423;SDS011;72707;50.120;8.500;2024-03-22T12:23:37;371.67;;;319.17;;
3423;SDS011;72707;50.120;8.500;2024-03-22T12:26:03;377.00;;;336.07;;
3423;SDS011;72707;50.120;8.500;2024-03-22T12:28:29;403.53;;;361.77;;
3423;SDS011;72707;50.120;8.500;2024-03-22T12:30:55;375.90;;;334.80;;
3423;SDS011;72707;50.120;8.500;2024-03-22T12:33:21;367.53;;;327.17;;
3423;SDS011;72707;50.120;8.500;2024-03-22T12:35:47;368.20;;;327.87;;
3423;SDS011;72707;50.120;8.500;2024-03-22T12:38:13;408.47;;;365.77;;
3423;SDS011;72707;50.120;8.500;2024-03-22T12:40:39;362.10;;;321.27;;
3423;SDS011;72707;50.120;8.500;2024-03-22T12:43:05;370.27;;;315.93;;
3423;SDS011;72707;50.120;8.500;2024-03-22T12:45:31;368.57;;;323.30;;
3423;SDS011;72707;50.120;8.500;2024-03-22T12:47:58;357.93;;;292.07;;
3423;SDS011;72707;50.120;8.500;2024-03-22T12:50:23;373.70;;;320.50;;
3423;SDS011;72707;50.120;8.500;2024-03-22T12:52:50;368.57;;;306.63;;
3423;SDS011;72707;50.120;8.500;2024-03-22T12:55:16;350.77;;;277.43;;
3423;SDS011;72707;50.120;8.500;2024-03-22T12:57:42;359.17;;;287.20;;
3423;SDS011;72707;50.120;8.500;2024-03-22T13:00:08;364.93;;;309.33;;
3423;SDS011;72707;50.120;8.500;2024-03-22T13:02:41;359.83;;;305.90;;
3423;SDS011;72707;50.120;8.500;2024-03-22T13:05:07;373.17;;;278.40;;
3423;SDS011;72707;50.120;8.500;2024-03-22T13:07:33;368.47;;;278.77;;
3423;SDS011;72707;50.120;8.500;2024-03-22T13:09:59;375.27;;;292.60;;
3423;SDS011;72707;50.120;8.500;2024-03-22T13:12:25;354.20;;;280.90;;
3423;SDS011;72707;50.120;8.500;2024-03-22T13:14:51;347.10;;;265.07;;
3423;SDS011;72707;50.120;8.500;2024-03-22T13:17:17;363.83;;;288.30;;
3423;SDS011;72707;50.120;8.500;2024-03-22T13:19:43;350.57;;;260.67;;
3423;SDS011;72707;50.120;8.500;2024-03-22T13:22:09;346.03;;;258.93;;
3423;SDS011;72707;50.120;8.500;2024-03-22T13:24:35;360.33;;;277.17;;
3423;SDS011;72707;50.120;8.500;2024-03-22T13:27:01;348.83;;;263.17;;
3423;SDS011;72707;50.120;8.500;2024-03-22T13:29:27;349.03;;;263.13;;
3423;SDS011;72707;50.120;8.500;2024-03-22T13:31:53;350.23;;;260.13;;
3423;SDS011;72707;50.120;8.500;2024-03-22T13:34:19;351.80;;;261.00;;
3423;SDS011;72707;50.120;8.500;2024-03-22T13:36:45;354.47;;;255.27;;
3423;SDS011;72707;50.120;8.500;2024-03-22T13:39:11;351.93;;;255.30;;
3423;SDS011;72707;50.120;8.500;2024-03-22T13:41:40;345.50;;;255.53;;
3423;SDS011;72707;50.120;8.500;2024-03-22T13:44:06;343.80;;;247.83;;
3423;SDS011;72707;50.120;8.500;2024-03-22T13:46:33;350.67;;;257.70;;
3423;SDS011;72707;50.120;8.500;2024-03-22T13:49:01;350.03;;;257.50;;
3423;SDS011;72707;50.120;8.500;2024-03-22T13:51:27;349.60;;;246.73;;
3423;SDS011;72707;50.120;8.500;2024-03-22T13:53:53;348.07;;;242.80;;
3423;SDS011;72707;50.120;8.500;2024-03-22T13:56:20;350.60;;;252.10;;
3423;SDS011;72707;50.120;8.500;2024-03-22T13:58:46;342.60;;;234.50;;
3423;SDS011;72707;50.120;8.500;2024-03-22T14:01:14;340.23;;;239.10;;
3423;SDS011;72707;50.120;8.500;2024-03-22T14:03:40;343.33;;;233.17;;
3423;SDS011;72707;50.120;8.500;2024-03-22T14:06:06;340.87;;;239.40;;
3423;SDS011;72707;50.120;8.500;2024-03-22T14:08:32;349.83;;;252.57;;
3423;SDS011;72707;50.120;8.500;2024-03-22T14:10:57;352.77;;;250.27;;